Hdms Esbern Snare — OUFB — position and weather

sailwx.info

Track history (hours):
 
Tides and Currents Weather Stations Pressure Air Temp Water Temp Dewpoint Dewpoint Depression Visibility Wind Speed Wind Dir Waves Ship Positions

Hdms Esbern Snare

Last reported at 2016-May-24 04:26 UTC. Time now 2016-May-25 18:56 UTC.
Position N 57°26' E 010°32'.

Length 137 m.

Type: Military. MMSI: 36699999.

Date/timePositionNaut miles runAvg speedWind from/ knotsBaromVisibWave heightAir tempDewpointWater temp
2016-May-24 04:26N 57°26' E 010°32'0 0.0
2016-May-24 03:11N 57°26' E 010°32'0 0.0
2016-May-24 01:05N 57°26' E 010°32'0 0.0
2016-May-23 23:20N 57°26' E 010°32'0 0.0
2016-May-23 22:17N 57°26' E 010°32'0 0.1
2016-May-23 21:29N 57°26' E 010°32'5 4.3
2016-May-23 20:22N 57°22' E 010°38'2 2.5
2016-May-23 19:33N 57°24' E 010°36'5 5.1
2016-May-23 18:34N 57°21' E 010°43'1814.4
2016-May-23 17:20N 57°03' E 010°50'4515.0
2016-May-23 14:18N 56°19' E 011°08'  
2016-May-17 20:29N 57°26' E 010°43'1415.3
2016-May-17 19:33N 57°40' E 010°46'2 0.8
2016-May-17 17:29N 57°42' E 010°48'2 1.2
2016-May-17 16:06N 57°40' E 010°48'0 0.0
2016-May-17 15:16N 57°40' E 010°48'6 8.5
2016-May-17 14:33N 57°45' E 010°56'1313.1
2016-May-17 13:33N 57°32' E 010°49'10 8.7
2016-May-17 12:28N 57°26' E 010°36'3 2.7
2016-May-17 11:29N 57°28' E 010°40'1313.5
2016-May-17 10:33N 57°37' E 010°56'3 3.1
2016-May-17 09:34N 57°34' E 010°56'1212.0
2016-May-17 08:34N 57°26' E 010°39'4 0.5
2016-May-17 00:33N 57°26' E 010°32'  
Track history (hours):
 
Tides and Currents Weather Stations Pressure Air Temp Water Temp Dewpoint Dewpoint Depression Visibility Wind Speed Wind Dir Waves Ship Positions

Hdms Esbern Snare

Last reported at 2016-May-24 04:26 UTC. Time now 2016-May-25 18:56 UTC.
Position N 57°26' E 010°32'.

Length 137 m.

Type: Military. MMSI: 36699999.

Date/timePositionNaut miles runAvg speedWind from/ knotsBaromVisibWave heightAir tempDewpointWater temp
2016-May-24 04:26N 57°26' E 010°32'0 0.0
2016-May-24 03:11N 57°26' E 010°32'0 0.0
2016-May-24 01:05N 57°26' E 010°32'0 0.0
2016-May-23 23:20N 57°26' E 010°32'0 0.0
2016-May-23 22:17N 57°26' E 010°32'0 0.1
2016-May-23 21:29N 57°26' E 010°32'5 4.3
2016-May-23 20:22N 57°22' E 010°38'2 2.5
2016-May-23 19:33N 57°24' E 010°36'5 5.1
2016-May-23 18:34N 57°21' E 010°43'1814.4
2016-May-23 17:20N 57°03' E 010°50'4515.0
2016-May-23 14:18N 56°19' E 011°08'  
2016-May-17 20:29N 57°26' E 010°43'1415.3
2016-May-17 19:33N 57°40' E 010°46'2 0.8
2016-May-17 17:29N 57°42' E 010°48'2 1.2
2016-May-17 16:06N 57°40' E 010°48'0 0.0
2016-May-17 15:16N 57°40' E 010°48'6 8.5
2016-May-17 14:33N 57°45' E 010°56'1313.1
2016-May-17 13:33N 57°32' E 010°49'10 8.7
2016-May-17 12:28N 57°26' E 010°36'3 2.7
2016-May-17 11:29N 57°28' E 010°40'1313.5
2016-May-17 10:33N 57°37' E 010°56'3 3.1
2016-May-17 09:34N 57°34' E 010°56'1212.0
2016-May-17 08:34N 57°26' E 010°39'4 0.5
2016-May-17 00:33N 57°26' E 010°32'  

Dump ship's entire track history